createdAt,value
2022-10-25T00:01:22.875Z,18.88
2022-10-25T00:06:28.017Z,20.08
2022-10-25T00:11:36.102Z,21.75
2022-10-25T00:16:41.768Z,20.08
2022-10-25T00:21:46.718Z,24.35
2022-10-25T00:26:54.302Z,23.23
2022-10-25T00:32:00.280Z,22.10
2022-10-25T00:37:05.538Z,17.90
2022-10-25T00:42:14.830Z,17.42
2022-10-25T00:47:40.603Z,20.50
2022-10-25T00:52:47.799Z,21.15
2022-10-25T00:57:58.103Z,22.67
2022-10-25T01:03:03.186Z,21.80
2022-10-25T01:08:09.026Z,22.83
2022-10-25T01:13:17.014Z,22.40
2022-10-25T01:18:26.746Z,22.67
2022-10-25T01:23:47.974Z,21.35
2022-10-25T01:29:08.721Z,23.75
2022-10-25T01:34:19.673Z,24.67
2022-10-25T01:39:28.467Z,24.83
2022-10-25T01:44:41.716Z,24.90
2022-10-25T01:49:52.189Z,34.55
2022-10-25T01:54:57.547Z,33.22
2022-10-25T02:00:13.032Z,31.67
2022-10-25T02:05:25.254Z,34.40
2022-10-25T02:10:34.749Z,30.50
2022-10-25T02:15:43.290Z,28.13
2022-10-25T02:20:52.242Z,30.52
2022-10-25T02:25:57.714Z,27.58
2022-10-25T02:31:03.498Z,23.05
2022-10-25T02:36:15.958Z,23.40
2022-10-25T02:41:21.586Z,27.65
2022-10-25T02:46:26.951Z,30.40
2022-10-25T02:51:34.618Z,30.00
2022-10-25T02:56:40.250Z,26.02
2022-10-25T03:01:45.270Z,26.55
2022-10-25T03:06:53.121Z,25.48
2022-10-25T03:11:58.315Z,31.45
2022-10-25T03:17:03.350Z,29.02
2022-10-25T03:22:10.958Z,32.05
2022-10-25T03:27:16.270Z,28.67
2022-10-25T03:32:21.349Z,27.92
2022-10-25T03:37:29.044Z,26.83
2022-10-25T03:42:34.190Z,32.38
2022-10-25T03:47:39.210Z,29.20
2022-10-25T03:52:47.063Z,26.88
2022-10-25T03:57:52.188Z,29.38
2022-10-25T04:03:01.708Z,25.75
2022-10-25T04:08:10.375Z,33.00
2022-10-25T04:13:15.490Z,29.20
2022-10-25T04:18:20.438Z,27.13
2022-10-25T04:23:28.102Z,27.92
2022-10-25T04:28:33.079Z,23.17
2022-10-25T04:33:38.096Z,26.25
2022-10-25T04:38:45.674Z,27.92
2022-10-25T04:43:51.099Z,23.23
2022-10-25T04:48:56.284Z,24.50
2022-10-25T04:54:03.870Z,31.02
2022-10-25T04:59:08.975Z,34.55
2022-10-25T05:04:13.959Z,27.38
2022-10-25T05:09:21.555Z,23.08
2022-10-25T05:14:26.548Z,23.85
2022-10-25T05:19:31.776Z,24.33
2022-10-25T05:24:39.366Z,25.30
2022-10-25T05:29:44.322Z,22.25
2022-10-25T05:34:49.262Z,21.90
2022-10-25T05:39:56.835Z,27.58
2022-10-25T05:45:01.811Z,24.20
2022-10-25T05:50:07.039Z,26.40
2022-10-25T05:55:14.865Z,25.92
2022-10-25T06:00:20.920Z,23.23
2022-10-25T06:05:26.052Z,23.83
2022-10-25T06:10:33.769Z,21.50
2022-10-25T06:15:40.027Z,26.90
2022-10-25T06:20:45.092Z,19.45
2022-10-25T06:25:52.742Z,17.65
2022-10-25T06:30:57.736Z,17.40
2022-10-25T06:36:04.230Z,20.88
2022-10-25T06:41:15.099Z,17.33
2022-10-25T06:46:24.459Z,24.98
2022-10-25T06:51:32.824Z,19.55
2022-10-25T06:56:40.482Z,18.70
2022-10-25T07:01:45.783Z,22.20
2022-10-25T07:06:54.314Z,22.05
2022-10-25T07:12:03.227Z,16.20
2022-10-25T07:17:08.308Z,15.30
2022-10-25T07:22:15.251Z,14.25
2022-10-25T07:27:23.493Z,17.15
2022-10-25T07:32:28.662Z,10.77
2022-10-25T07:37:33.622Z,16.77
2022-10-25T07:42:41.472Z,12.70
2022-10-25T07:47:46.730Z,14.60
2022-10-25T07:52:52.418Z,11.18
2022-10-25T07:58:40.714Z,12.45
2022-10-25T08:09:37.740Z,13.57
2022-10-25T08:14:47.639Z,10.98
2022-10-25T08:25:13.544Z,13.48
2022-10-25T08:30:21.384Z,10.95
2022-10-25T08:35:26.599Z,14.65
2022-10-25T08:40:37.422Z,19.75
2022-10-25T08:45:52.509Z,12.88
2022-10-25T08:51:06.430Z,11.48
2022-10-25T08:56:17.425Z,13.75
2022-10-25T09:01:28.562Z,12.70
2022-10-25T09:06:38.295Z,11.55
2022-10-25T09:17:02.374Z,9.77
2022-10-25T09:22:09.826Z,35.63
2022-10-25T09:27:17.873Z,9.73
2022-10-25T09:32:28.959Z,27.00
2022-10-25T09:37:37.582Z,11.25
2022-10-25T09:42:46.031Z,11.57
2022-10-25T09:47:59.877Z,10.95
2022-10-25T09:53:12.352Z,9.88
2022-10-25T09:58:21.955Z,8.20
2022-10-25T10:03:36.056Z,8.43
2022-10-25T10:08:42.859Z,6.15
2022-10-25T10:13:50.881Z,7.10
2022-10-25T10:19:18.434Z,6.93
2022-10-25T10:24:26.024Z,6.18
2022-10-25T10:29:32.260Z,5.78
2022-10-25T10:34:45.568Z,8.68
2022-10-25T10:39:55.195Z,12.38
2022-10-25T10:45:08.200Z,7.72
2022-10-25T10:50:25.874Z,5.80
2022-10-25T10:55:33.153Z,6.78
2022-10-25T11:00:38.397Z,5.30
2022-10-25T11:05:47.324Z,5.05
2022-10-25T11:10:55.228Z,6.13
2022-10-25T11:16:27.373Z,6.43
2022-10-25T11:22:00.489Z,4.85
2022-10-25T11:27:13.756Z,6.30
2022-10-25T11:32:33.592Z,6.97
2022-10-25T11:37:45.446Z,4.45
2022-10-25T11:43:02.957Z,8.32
2022-10-25T11:48:27.506Z,4.70
2022-10-25T11:54:08.753Z,4.70
2022-10-25T11:59:19.577Z,6.10
2022-10-25T12:04:46.551Z,5.50
2022-10-25T12:10:05.152Z,6.70
2022-10-25T12:15:15.780Z,5.57
2022-10-25T12:20:26.398Z,6.85
2022-10-25T12:25:36.515Z,4.93
2022-10-25T12:30:43.331Z,4.13
2022-10-25T12:35:52.877Z,5.72
2022-10-25T12:46:35.955Z,6.07
2022-10-25T12:51:56.108Z,5.38
2022-10-25T12:57:14.367Z,5.68
2022-10-25T13:02:33.718Z,6.57
2022-10-25T13:07:39.281Z,8.60
2022-10-25T13:12:47.285Z,7.18
2022-10-25T13:18:05.350Z,6.28
2022-10-25T13:23:39.904Z,7.43
2022-10-25T13:28:50.588Z,6.18
2022-10-25T13:34:25.270Z,8.27
2022-10-25T13:39:33.775Z,7.03
2022-10-25T13:44:51.838Z,6.72
2022-10-25T13:49:58.386Z,8.65
2022-10-25T13:55:09.566Z,5.60
2022-10-25T14:00:31.924Z,4.72
2022-10-25T14:06:16.175Z,4.05
2022-10-25T14:11:27.038Z,5.22
2022-10-25T14:16:36.337Z,6.60
2022-10-25T14:21:42.742Z,7.15
2022-10-25T14:27:35.179Z,10.70
2022-10-25T14:32:57.933Z,11.80
2022-10-25T14:43:51.160Z,9.88
2022-10-25T14:49:00.955Z,7.75
2022-10-25T14:54:08.706Z,8.30
2022-10-25T14:59:21.283Z,6.18
2022-10-25T15:04:34.064Z,5.88
2022-10-25T15:09:43.235Z,12.32
2022-10-25T15:14:48.829Z,7.80
2022-10-25T15:20:04.841Z,7.35
2022-10-25T15:25:20.973Z,6.70
2022-10-25T15:30:40.189Z,6.13
2022-10-25T15:35:51.471Z,10.37
2022-10-25T15:40:56.559Z,7.85
2022-10-25T15:46:03.170Z,7.03
2022-10-25T15:51:15.070Z,7.30
2022-10-25T15:56:22.507Z,10.07
2022-10-25T16:01:27.796Z,15.38
2022-10-25T16:06:35.606Z,9.65
2022-10-25T16:11:44.924Z,9.10
2022-10-25T16:16:52.261Z,21.00
2022-10-25T16:21:59.924Z,8.77
2022-10-25T16:27:05.062Z,5.65
2022-10-25T16:32:10.130Z,7.05
2022-10-25T16:37:17.944Z,7.90
2022-10-25T16:42:33.427Z,8.00
2022-10-25T16:47:38.713Z,9.32
2022-10-25T16:52:46.683Z,6.95
2022-10-25T16:57:52.003Z,7.45
2022-10-25T17:02:57.107Z,8.68
2022-10-25T17:08:04.771Z,8.85
2022-10-25T17:24:21.567Z,43.17
2022-10-25T17:29:27.072Z,21.95
2022-10-25T17:34:34.635Z,25.75
2022-10-25T17:39:44.406Z,14.45
2022-10-25T17:44:49.447Z,11.65
2022-10-25T17:50:00.812Z,12.70
2022-10-25T17:55:10.215Z,15.32
2022-10-25T18:00:17.082Z,15.68
2022-10-25T18:05:25.316Z,14.35
2022-10-25T18:10:36.045Z,11.20
2022-10-25T18:15:41.328Z,13.80
2022-10-25T18:38:04.135Z,21.27
2022-10-25T18:43:11.724Z,19.23
2022-10-25T18:48:16.879Z,17.67
2022-10-25T18:53:22.349Z,13.32
2022-10-25T18:58:30.165Z,13.43
2022-10-25T19:03:35.205Z,34.85
2022-10-25T19:15:10.369Z,20.80
2022-10-25T19:20:15.457Z,15.20
2022-10-25T19:25:23.792Z,13.80
2022-10-25T19:30:35.462Z,13.20
2022-10-25T19:35:42.638Z,17.42
2022-10-25T19:40:50.218Z,15.70
2022-10-25T19:51:53.835Z,22.08
2022-10-25T19:56:59.160Z,25.10
2022-10-25T20:02:41.660Z,16.50
2022-10-25T20:07:49.879Z,16.15
2022-10-25T20:12:55.139Z,13.43
2022-10-25T20:18:01.328Z,15.95
2022-10-25T20:23:09.052Z,13.68
2022-10-25T20:31:25.600Z,16.35
2022-10-25T20:39:07.028Z,13.15
2022-10-25T20:44:14.974Z,15.30
2022-10-25T20:49:25.686Z,15.20
2022-10-25T21:00:29.560Z,14.95
2022-10-25T21:11:04.252Z,16.38
2022-10-25T21:32:53.279Z,18.48
2022-10-25T21:38:15.531Z,19.63
2022-10-25T21:43:20.599Z,19.58
2022-10-25T21:48:28.936Z,21.02
2022-10-25T21:53:34.150Z,17.52
2022-10-25T21:58:41.311Z,18.80
2022-10-25T22:03:49.209Z,19.77
2022-10-25T22:08:55.669Z,19.10
2022-10-25T22:14:02.391Z,19.15
2022-10-25T22:25:06.335Z,20.38
2022-10-25T22:30:12.906Z,16.80
2022-10-25T22:35:18.206Z,19.30
2022-10-25T22:40:26.497Z,19.40
2022-10-25T22:45:31.693Z,16.08
2022-10-25T22:50:37.223Z,19.15
2022-10-25T22:55:44.843Z,16.25
2022-10-25T23:00:49.895Z,29.67
2022-10-25T23:05:59.886Z,16.33
2022-10-25T23:11:09.555Z,14.95
2022-10-25T23:21:41.823Z,15.98
2022-10-25T23:26:49.446Z,17.40
2022-10-25T23:37:22.625Z,16.48
2022-10-25T23:43:07.309Z,13.18
2022-10-25T23:48:12.447Z,15.40
2022-10-25T23:53:17.495Z,23.58
2022-10-25T23:58:25.957Z,10.75
